createdAt,value
2023-02-16T00:02:16.079Z,-2.88
2023-02-16T00:04:49.928Z,-2.87
2023-02-16T00:07:24.317Z,-2.84
2023-02-16T00:09:58.373Z,-2.82
2023-02-16T00:12:49.952Z,-2.81
2023-02-16T00:15:24.496Z,-2.78
2023-02-16T00:18:03.021Z,-2.79
2023-02-16T00:20:37.738Z,-2.82
2023-02-16T00:23:10.928Z,-2.82
2023-02-16T00:25:45.262Z,-2.78
2023-02-16T00:28:21.590Z,-2.77
2023-02-16T00:30:55.504Z,-2.75
2023-02-16T00:33:31.402Z,-2.71
2023-02-16T00:36:05.478Z,-2.69
2023-02-16T00:38:40.127Z,-2.70
2023-02-16T00:41:43.404Z,-2.73
2023-02-16T00:44:21.413Z,-2.79
2023-02-16T00:46:56.326Z,-2.87
2023-02-16T00:49:30.238Z,-2.93
2023-02-16T00:52:16.874Z,-3.00
2023-02-16T00:54:51.060Z,-3.05
2023-02-16T00:57:24.980Z,-3.06
2023-02-16T01:00:04.254Z,-3.09
2023-02-16T01:02:38.629Z,-3.08
2023-02-16T01:05:13.182Z,-3.09
2023-02-16T01:08:05.626Z,-3.11
2023-02-16T01:10:58.535Z,-3.16
2023-02-16T01:13:34.521Z,-3.18
2023-02-16T01:16:14.082Z,-3.17
2023-02-16T01:18:49.236Z,-3.16
2023-02-16T01:21:25.365Z,-3.15
2023-02-16T01:23:58.994Z,-3.18
2023-02-16T01:26:32.373Z,-3.19
2023-02-16T01:29:05.399Z,-3.23
2023-02-16T01:31:38.832Z,-3.25
2023-02-16T01:34:12.604Z,-3.30
2023-02-16T01:36:48.848Z,-3.33
2023-02-16T01:39:22.297Z,-3.34
2023-02-16T01:42:26.669Z,-3.36
2023-02-16T01:45:01.510Z,-3.32
2023-02-16T01:47:57.446Z,-3.33
2023-02-16T01:50:36.465Z,-3.34
2023-02-16T01:53:15.823Z,-3.34
2023-02-16T01:55:50.702Z,-3.33
2023-02-16T01:58:41.175Z,-3.35
2023-02-16T02:01:38.891Z,-3.34
2023-02-16T02:04:35.725Z,-3.35
2023-02-16T02:07:08.356Z,-3.37
2023-02-16T02:09:45.651Z,-3.40
2023-02-16T02:12:27.285Z,-3.43
2023-02-16T02:15:00.730Z,-3.43
2023-02-16T02:17:33.782Z,-3.47
2023-02-16T02:20:30.569Z,-3.48
2023-02-16T02:23:30.383Z,-3.48
2023-02-16T02:26:15.648Z,-3.51
2023-02-16T02:28:57.687Z,-3.53
2023-02-16T02:31:50.195Z,-3.51
2023-02-16T02:34:47.042Z,-3.51
2023-02-16T02:37:49.918Z,-3.51
2023-02-16T02:40:38.800Z,-3.45
2023-02-16T02:43:34.214Z,-3.41
2023-02-16T02:46:23.722Z,-3.35
2023-02-16T02:48:56.565Z,-3.33
2023-02-16T02:51:29.403Z,-3.34
2023-02-16T02:54:42.250Z,-3.35
2023-02-16T02:57:49.626Z,-3.34
2023-02-16T03:00:48.144Z,-3.36
2023-02-16T03:03:35.284Z,-3.38
2023-02-16T03:06:20.178Z,-3.43
2023-02-16T03:09:14.509Z,-3.43
2023-02-16T03:12:05.402Z,-3.45
2023-02-16T03:14:40.863Z,-3.45
2023-02-16T03:17:37.365Z,-3.48
2023-02-16T03:20:31.157Z,-3.47
2023-02-16T03:23:22.317Z,-3.44
2023-02-16T03:26:13.672Z,-3.48
2023-02-16T03:29:05.600Z,-3.48
2023-02-16T03:31:39.251Z,-3.45
2023-02-16T03:34:12.150Z,-3.47
2023-02-16T03:36:46.061Z,-3.47
2023-02-16T03:39:19.645Z,-3.45
2023-02-16T03:41:54.009Z,-3.46
2023-02-16T03:44:26.661Z,-3.53
2023-02-16T03:46:59.360Z,-3.53
2023-02-16T03:49:32.141Z,-3.56
2023-02-16T03:52:04.959Z,-3.59
2023-02-16T03:54:37.792Z,-3.57
2023-02-16T03:57:11.171Z,-3.57
2023-02-16T03:59:43.970Z,-3.55
2023-02-16T04:02:16.772Z,-3.56
2023-02-16T04:04:49.475Z,-3.62
2023-02-16T04:07:22.385Z,-3.68
2023-02-16T04:09:55.079Z,-3.67
2023-02-16T04:12:36.728Z,-3.68
2023-02-16T04:15:11.609Z,-3.70
2023-02-16T04:17:45.249Z,-3.71
2023-02-16T04:20:20.895Z,-3.70
2023-02-16T04:22:54.724Z,-3.72
2023-02-16T04:25:27.750Z,-3.76
2023-02-16T04:28:00.891Z,-3.78
2023-02-16T04:30:35.693Z,-3.74
2023-02-16T04:33:09.091Z,-3.70
2023-02-16T04:35:42.186Z,-3.70
2023-02-16T04:38:16.077Z,-3.73
2023-02-16T04:40:48.775Z,-3.78
2023-02-16T04:43:21.497Z,-3.84
2023-02-16T04:45:54.439Z,-3.84
2023-02-16T04:48:27.462Z,-3.81
2023-02-16T04:51:00.108Z,-3.78
2023-02-16T04:53:32.817Z,-3.79
2023-02-16T04:56:05.937Z,-3.73
2023-02-16T04:58:38.709Z,-3.71
2023-02-16T05:01:13.306Z,-3.69
2023-02-16T05:03:45.960Z,-3.68
2023-02-16T05:06:19.117Z,-3.65
2023-02-16T05:08:52.057Z,-3.61
2023-02-16T05:11:43.429Z,-3.57
2023-02-16T05:14:43.156Z,-3.52
2023-02-16T05:17:24.239Z,-3.50
2023-02-16T05:19:59.154Z,-3.49
2023-02-16T05:22:35.927Z,-3.49
2023-02-16T05:25:09.136Z,-3.49
2023-02-16T05:27:43.048Z,-3.50
2023-02-16T05:30:16.479Z,-3.49
2023-02-16T05:32:49.581Z,-3.41
2023-02-16T05:35:23.050Z,-3.33
2023-02-16T05:37:56.959Z,-3.24
2023-02-16T05:40:29.847Z,-3.15
2023-02-16T05:43:02.866Z,-3.03
2023-02-16T05:45:36.639Z,-2.91
2023-02-16T05:48:10.526Z,-2.80
2023-02-16T05:50:43.527Z,-2.78
2023-02-16T05:53:17.091Z,-2.79
2023-02-16T05:55:51.692Z,-2.76
2023-02-16T05:58:24.607Z,-2.68
2023-02-16T06:00:58.423Z,-2.58
2023-02-16T06:03:33.217Z,-2.51
2023-02-16T06:06:06.950Z,-2.46
2023-02-16T06:08:39.943Z,-2.44
2023-02-16T06:11:30.967Z,-2.42
2023-02-16T06:14:06.928Z,-2.40
2023-02-16T06:16:41.454Z,-2.39
2023-02-16T06:19:16.380Z,-2.38
2023-02-16T06:21:49.692Z,-2.38
2023-02-16T06:24:22.367Z,-2.39
2023-02-16T06:26:55.440Z,-2.39
2023-02-16T06:29:28.245Z,-2.37
2023-02-16T06:32:01.306Z,-2.34
2023-02-16T06:34:34.311Z,-2.30
2023-02-16T06:37:07.066Z,-2.24
2023-02-16T06:39:40.216Z,-2.11
2023-02-16T06:42:12.868Z,-1.98
2023-02-16T06:44:45.532Z,-1.89
2023-02-16T06:47:19.212Z,-1.80
2023-02-16T06:49:51.984Z,-1.82
2023-02-16T06:52:25.332Z,-1.89
2023-02-16T06:54:58.203Z,-1.88
2023-02-16T06:57:31.654Z,-1.91
2023-02-16T07:00:07.016Z,-1.80
2023-02-16T07:02:39.964Z,-1.66
2023-02-16T07:05:12.791Z,-1.65
2023-02-16T07:07:45.584Z,-1.71
2023-02-16T07:10:18.469Z,-1.75
2023-02-16T07:12:51.238Z,-1.67
2023-02-16T07:15:24.630Z,-1.64
2023-02-16T07:17:57.472Z,-1.69
2023-02-16T07:20:30.250Z,-1.77
2023-02-16T07:23:03.062Z,-1.85
2023-02-16T07:25:37.088Z,-1.91
2023-02-16T07:28:10.008Z,-1.93
2023-02-16T07:30:43.290Z,-1.96
2023-02-16T07:33:17.128Z,-2.01
2023-02-16T07:35:50.492Z,-2.03
2023-02-16T07:38:23.702Z,-1.99
2023-02-16T07:40:56.482Z,-1.90
2023-02-16T07:43:29.610Z,-1.89
2023-02-16T07:46:02.742Z,-1.91
2023-02-16T07:48:37.443Z,-1.79
2023-02-16T07:51:10.683Z,-1.56
2023-02-16T07:53:43.360Z,-1.47
2023-02-16T07:56:30.521Z,-1.58
2023-02-16T07:59:03.864Z,-1.64
2023-02-16T08:01:38.496Z,-1.70
2023-02-16T08:04:11.404Z,-1.78
2023-02-16T08:06:46.180Z,-1.80
2023-02-16T08:09:18.981Z,-1.70
2023-02-16T08:11:52.411Z,-1.60
2023-02-16T08:14:25.164Z,-1.56
2023-02-16T08:16:58.273Z,-1.51
2023-02-16T08:19:31.221Z,-1.41
2023-02-16T08:22:04.803Z,-1.37
2023-02-16T08:24:38.241Z,-1.34
2023-02-16T08:27:11.092Z,-1.33
2023-02-16T08:29:45.751Z,-1.23
2023-02-16T08:32:19.032Z,-1.21
2023-02-16T08:35:10.265Z,-1.21
2023-02-16T08:37:42.947Z,-1.18
2023-02-16T08:40:15.536Z,-1.04
2023-02-16T08:42:48.325Z,-0.91
2023-02-16T08:45:21.942Z,-0.88
2023-02-16T08:47:55.886Z,-0.82
2023-02-16T08:50:29.128Z,-0.80
2023-02-16T08:53:02.668Z,-0.87
2023-02-16T08:55:36.035Z,-0.99
2023-02-16T08:58:09.119Z,-0.98
2023-02-16T09:00:43.658Z,-0.95
2023-02-16T09:03:19.323Z,-0.91
2023-02-16T09:05:53.172Z,-0.80
2023-02-16T09:08:26.512Z,-0.69
2023-02-16T09:11:02.923Z,-0.49
2023-02-16T09:13:40.430Z,-0.50
2023-02-16T09:16:18.996Z,-0.53
2023-02-16T09:18:53.892Z,-0.55
2023-02-16T09:21:27.103Z,-0.55
2023-02-16T09:24:01.872Z,-0.47
2023-02-16T09:26:52.116Z,-0.32
2023-02-16T09:29:24.875Z,-0.17
2023-02-16T09:31:57.639Z,-0.19
2023-02-16T09:34:30.317Z,-0.24
2023-02-16T09:37:02.952Z,-0.33
2023-02-16T09:39:36.288Z,-0.32
2023-02-16T09:42:28.950Z,-0.23
2023-02-16T09:45:12.106Z,-0.20
2023-02-16T09:47:47.733Z,-0.23
2023-02-16T09:50:38.646Z,-0.21
2023-02-16T09:53:08.632Z,-0.22
2023-02-16T09:55:58.339Z,-0.30
2023-02-16T09:58:50.766Z,-0.43
2023-02-16T10:01:51.156Z,-0.52
2023-02-16T10:04:54.617Z,-0.65
2023-02-16T10:07:42.748Z,-0.85
2023-02-16T10:10:17.669Z,-0.88
2023-02-16T10:13:16.304Z,-0.86
2023-02-16T10:15:49.933Z,-0.84
2023-02-16T10:18:27.033Z,-0.81
2023-02-16T10:21:01.909Z,-0.85
2023-02-16T10:23:48.059Z,-0.91
2023-02-16T10:26:32.956Z,-1.01
2023-02-16T10:29:07.820Z,-1.11
2023-02-16T10:31:47.382Z,-1.21
2023-02-16T10:34:29.502Z,-1.17
2023-02-16T10:37:17.668Z,-1.10
2023-02-16T10:40:15.819Z,-1.03
2023-02-16T10:42:56.463Z,-0.96
2023-02-16T10:45:45.257Z,-0.95
2023-02-16T10:48:20.690Z,-1.03
2023-02-16T10:50:58.903Z,-1.10
2023-02-16T10:53:51.044Z,-1.16
2023-02-16T10:56:45.364Z,-1.20
2023-02-16T10:59:23.900Z,-1.27
2023-02-16T11:02:01.654Z,-1.30
2023-02-16T11:04:42.978Z,-1.33
2023-02-16T11:07:22.303Z,-1.36
2023-02-16T11:09:57.417Z,-1.38
2023-02-16T11:12:39.848Z,-1.44
2023-02-16T11:15:19.123Z,-1.57
2023-02-16T11:18:01.208Z,-1.61
2023-02-16T11:20:46.124Z,-1.66
2023-02-16T11:23:25.747Z,-1.62
2023-02-16T11:26:05.741Z,-1.65
2023-02-16T11:28:44.422Z,-1.71
2023-02-16T11:31:34.932Z,-1.67
2023-02-16T11:34:11.767Z,-1.56
2023-02-16T11:36:47.112Z,-1.50
2023-02-16T11:39:27.518Z,-1.50
2023-02-16T11:42:05.234Z,-1.52
2023-02-16T11:44:41.406Z,-1.52
2023-02-16T11:47:37.718Z,-1.48
2023-02-16T11:50:31.533Z,-1.47
2023-02-16T11:53:16.358Z,-1.54
2023-02-16T11:55:49.968Z,-1.64
2023-02-16T11:58:28.140Z,-1.66
2023-02-16T12:01:21.639Z,-1.75
2023-02-16T12:03:59.416Z,-1.83
2023-02-16T12:06:41.422Z,-1.78
2023-02-16T12:09:23.184Z,-1.72
2023-02-16T12:12:13.965Z,-1.62
2023-02-16T12:14:52.891Z,-1.66
2023-02-16T12:17:45.975Z,-1.76
2023-02-16T12:20:36.808Z,-1.78
2023-02-16T12:23:24.610Z,-1.72
2023-02-16T12:26:17.063Z,-1.57
2023-02-16T12:28:52.995Z,-1.46
2023-02-16T12:31:54.875Z,-1.34
2023-02-16T12:34:40.450Z,-1.25
2023-02-16T12:37:16.859Z,-1.10
2023-02-16T12:40:10.571Z,-0.92
2023-02-16T12:42:46.776Z,-0.77
2023-02-16T12:45:22.990Z,-0.76
2023-02-16T12:48:01.322Z,-0.80
2023-02-16T12:50:35.352Z,-0.94
2023-02-16T12:53:22.460Z,-1.07
2023-02-16T12:56:04.507Z,-1.08
2023-02-16T12:58:42.060Z,-1.10
2023-02-16T13:01:18.246Z,-1.10
2023-02-16T13:03:59.320Z,-1.06
2023-02-16T13:06:47.636Z,-1.05
2023-02-16T13:09:27.125Z,-1.08
2023-02-16T13:12:18.589Z,-1.09
2023-02-16T13:14:56.119Z,-1.17
2023-02-16T13:17:34.520Z,-1.16
2023-02-16T13:20:18.996Z,-1.13
2023-02-16T13:23:06.952Z,-1.07
2023-02-16T13:25:49.125Z,-1.12
2023-02-16T13:28:43.519Z,-1.15
2023-02-16T13:31:26.400Z,-1.19
2023-02-16T13:34:32.513Z,-1.18
2023-02-16T13:37:21.901Z,-1.14
2023-02-16T13:39:58.261Z,-1.29
2023-02-16T13:42:52.433Z,-1.39
2023-02-16T13:45:27.466Z,-1.47
2023-02-16T13:48:00.379Z,-1.58
2023-02-16T13:50:34.341Z,-1.64
2023-02-16T13:53:21.051Z,-1.63
2023-02-16T13:56:15.158Z,-1.70
2023-02-16T13:58:48.019Z,-1.80
2023-02-16T14:01:43.307Z,-1.82
2023-02-16T14:04:28.171Z,-1.81
2023-02-16T14:07:07.723Z,-1.79
2023-02-16T14:09:44.095Z,-1.79
2023-02-16T14:12:25.612Z,-1.80
2023-02-16T14:15:02.055Z,-1.87
2023-02-16T14:17:36.427Z,-1.95
2023-02-16T14:20:18.354Z,-1.99
2023-02-16T14:22:59.972Z,-2.01
2023-02-16T14:25:35.133Z,-2.01
2023-02-16T14:28:26.258Z,-2.02
2023-02-16T14:31:04.061Z,-2.05
2023-02-16T14:33:56.529Z,-2.03
2023-02-16T14:36:30.464Z,-2.03
2023-02-16T14:39:03.116Z,-2.03
2023-02-16T14:41:38.792Z,-2.01
2023-02-16T14:44:27.034Z,-2.02
2023-02-16T14:47:15.762Z,-2.00
2023-02-16T14:49:55.362Z,-1.98
2023-02-16T14:52:48.345Z,-1.93
2023-02-16T14:55:43.764Z,-1.88
2023-02-16T14:58:28.816Z,-1.82
2023-02-16T15:01:12.753Z,-1.79
2023-02-16T15:03:48.544Z,-1.80
2023-02-16T15:06:28.141Z,-1.80
2023-02-16T15:09:03.311Z,-1.79
2023-02-16T15:11:44.238Z,-1.73
2023-02-16T15:14:17.122Z,-1.70
2023-02-16T15:16:52.547Z,-1.70
2023-02-16T15:19:28.752Z,-1.74
2023-02-16T15:22:22.688Z,-1.80
2023-02-16T15:25:01.577Z,-1.84
2023-02-16T15:27:34.673Z,-1.88
2023-02-16T15:30:10.317Z,-1.93
2023-02-16T15:32:43.156Z,-1.96
2023-02-16T15:35:19.263Z,-1.97
2023-02-16T15:38:03.279Z,-2.00
2023-02-16T15:40:37.075Z,-2.04
2023-02-16T15:43:19.045Z,-2.09
2023-02-16T15:45:53.940Z,-2.10
2023-02-16T15:48:34.692Z,-2.10
2023-02-16T15:51:16.675Z,-2.10
2023-02-16T15:53:55.450Z,-2.10
2023-02-16T15:56:31.569Z,-2.12
2023-02-16T15:59:08.300Z,-2.08
2023-02-16T16:01:42.088Z,-2.05
2023-02-16T16:04:23.318Z,-2.01
2023-02-16T16:06:56.974Z,-1.99
2023-02-16T16:09:31.113Z,-2.01
2023-02-16T16:12:09.440Z,-2.02
2023-02-16T16:14:59.465Z,-2.01
2023-02-16T16:17:35.984Z,-2.01
2023-02-16T16:20:31.706Z,-2.02
2023-02-16T16:23:07.049Z,-2.03
2023-02-16T16:25:47.917Z,-2.04
2023-02-16T16:28:31.005Z,-2.06
2023-02-16T16:31:13.824Z,-2.04
2023-02-16T16:34:00.781Z,-2.02
2023-02-16T16:36:39.741Z,-2.02
2023-02-16T16:39:21.400Z,-2.04
2023-02-16T16:42:12.842Z,-2.06
2023-02-16T16:44:57.045Z,-2.05
2023-02-16T16:47:41.076Z,-2.08
2023-02-16T16:50:18.679Z,-2.08
2023-02-16T16:52:52.230Z,-2.11
2023-02-16T16:55:31.081Z,-2.14
2023-02-16T16:58:11.294Z,-2.18
2023-02-16T17:00:44.409Z,-2.22
2023-02-16T17:03:18.116Z,-2.24
2023-02-16T17:05:50.788Z,-2.24
2023-02-16T17:08:23.868Z,-2.23
2023-02-16T17:10:57.011Z,-2.24
2023-02-16T17:13:30.528Z,-2.25
2023-02-16T17:16:08.631Z,-2.25
2023-02-16T17:18:42.217Z,-2.28
2023-02-16T17:21:15.826Z,-2.30
2023-02-16T17:23:53.239Z,-2.30
2023-02-16T17:26:23.894Z,-2.32
2023-02-16T17:28:56.739Z,-2.31
2023-02-16T17:31:29.769Z,-2.33
2023-02-16T17:34:04.701Z,-2.33
2023-02-16T17:36:37.943Z,-2.33
2023-02-16T17:39:11.391Z,-2.32
2023-02-16T17:41:44.805Z,-2.30
2023-02-16T17:44:17.754Z,-2.31
2023-02-16T17:46:50.607Z,-2.37
2023-02-16T17:49:24.251Z,-2.44
2023-02-16T17:51:56.990Z,-2.50
2023-02-16T17:54:29.818Z,-2.56
2023-02-16T17:57:02.628Z,-2.59
2023-02-16T17:59:37.216Z,-2.60
2023-02-16T18:02:13.506Z,-2.63
2023-02-16T18:04:46.360Z,-2.63
2023-02-16T18:07:19.978Z,-2.62
2023-02-16T18:09:53.422Z,-2.61
2023-02-16T18:12:28.409Z,-2.65
2023-02-16T18:15:00.762Z,-2.66
2023-02-16T18:17:33.658Z,-2.68
2023-02-16T18:20:07.340Z,-2.69
2023-02-16T18:22:40.300Z,-2.70
2023-02-16T18:25:13.321Z,-2.75
2023-02-16T18:27:47.580Z,-2.79
2023-02-16T18:30:20.784Z,-2.81
2023-02-16T18:32:54.282Z,-2.84
2023-02-16T18:35:27.562Z,-2.88
2023-02-16T18:38:01.578Z,-2.86
2023-02-16T18:40:34.456Z,-2.82
2023-02-16T18:43:07.218Z,-2.83
2023-02-16T18:45:42.685Z,-2.88
2023-02-16T18:48:15.781Z,-2.94
2023-02-16T18:50:48.515Z,-2.99
2023-02-16T18:53:21.167Z,-3.04
2023-02-16T18:55:53.837Z,-3.07
2023-02-16T18:58:26.708Z,-3.08
2023-02-16T19:01:01.177Z,-3.06
2023-02-16T19:03:34.617Z,-3.07
2023-02-16T19:06:08.603Z,-3.05
2023-02-16T19:08:41.416Z,-3.06
2023-02-16T19:11:14.752Z,-3.04
2023-02-16T19:13:51.515Z,-3.06
2023-02-16T19:16:24.472Z,-3.05
2023-02-16T19:18:57.390Z,-3.03
2023-02-16T19:21:30.350Z,-3.00
2023-02-16T19:24:04.409Z,-3.00
2023-02-16T19:26:37.367Z,-3.01
2023-02-16T19:29:10.186Z,-3.00
2023-02-16T19:31:43.353Z,-3.00
2023-02-16T19:34:17.176Z,-3.07
2023-02-16T19:36:50.318Z,-3.18
2023-02-16T19:39:22.935Z,-3.28
2023-02-16T19:41:55.708Z,-3.37
2023-02-16T19:44:28.719Z,-3.43
2023-02-16T19:47:03.372Z,-3.51
2023-02-16T19:49:36.711Z,-3.60
2023-02-16T19:52:09.468Z,-3.68
2023-02-16T19:54:43.005Z,-3.75
2023-02-16T19:57:15.728Z,-3.80
2023-02-16T19:59:52.027Z,-3.83
2023-02-16T20:02:25.772Z,-3.91
2023-02-16T20:04:58.801Z,-3.97
2023-02-16T20:07:32.028Z,-4.04
2023-02-16T20:10:05.240Z,-4.14
2023-02-16T20:12:38.353Z,-4.24
2023-02-16T20:15:14.270Z,-4.33
2023-02-16T20:17:47.956Z,-4.40
2023-02-16T20:20:22.379Z,-4.42
2023-02-16T20:22:55.299Z,-4.45
2023-02-16T20:25:28.077Z,-4.45
2023-02-16T20:28:01.025Z,-4.49
2023-02-16T20:30:33.930Z,-4.55
2023-02-16T20:33:06.845Z,-4.62
2023-02-16T20:35:39.778Z,-4.67
2023-02-16T20:38:12.679Z,-4.72
2023-02-16T20:40:45.963Z,-4.77
2023-02-16T20:43:20.304Z,-4.80
2023-02-16T20:45:53.205Z,-4.87
2023-02-16T20:48:26.504Z,-4.94
2023-02-16T20:51:01.615Z,-5.00
2023-02-16T20:53:35.742Z,-5.06
2023-02-16T20:56:17.024Z,-5.13
2023-02-16T20:58:51.500Z,-5.18
2023-02-16T21:01:27.438Z,-5.22
2023-02-16T21:04:01.543Z,-5.28
2023-02-16T21:06:35.442Z,-5.32
2023-02-16T21:09:09.405Z,-5.31
2023-02-16T21:11:43.281Z,-5.34
2023-02-16T21:14:16.380Z,-5.39
2023-02-16T21:16:50.698Z,-5.45
2023-02-16T21:19:23.774Z,-5.50
2023-02-16T21:21:56.973Z,-5.53
2023-02-16T21:24:29.718Z,-5.52
2023-02-16T21:27:02.889Z,-5.56
2023-02-16T21:29:36.459Z,-5.55
2023-02-16T21:32:09.809Z,-5.55
2023-02-16T21:34:43.553Z,-5.57
2023-02-16T21:37:16.178Z,-5.60
2023-02-16T21:40:07.091Z,-5.63
2023-02-16T21:42:40.135Z,-5.68
2023-02-16T21:45:13.433Z,-5.70
2023-02-16T21:48:05.193Z,-5.71
2023-02-16T21:50:40.384Z,-5.74
2023-02-16T21:53:13.370Z,-5.76
2023-02-16T21:56:04.920Z,-5.77
2023-02-16T21:58:37.900Z,-5.78
2023-02-16T22:01:10.893Z,-5.84
2023-02-16T22:03:43.655Z,-5.86
2023-02-16T22:06:16.760Z,-5.88
2023-02-16T22:08:49.617Z,-5.93
2023-02-16T22:11:23.197Z,-5.95
2023-02-16T22:13:58.261Z,-5.95
2023-02-16T22:16:33.516Z,-5.94
2023-02-16T22:19:09.166Z,-5.82
2023-02-16T22:21:43.149Z,-5.72
2023-02-16T22:24:17.185Z,-5.68
2023-02-16T22:26:50.388Z,-5.68
2023-02-16T22:29:23.216Z,-5.66
2023-02-16T22:31:56.578Z,-5.59
2023-02-16T22:34:29.184Z,-5.57
2023-02-16T22:37:02.189Z,-5.52
2023-02-16T22:39:35.494Z,-5.43
2023-02-16T22:42:08.355Z,-5.37
2023-02-16T22:44:42.518Z,-5.36
2023-02-16T22:47:15.504Z,-5.30
2023-02-16T22:49:48.829Z,-5.23
2023-02-16T22:52:22.264Z,-5.16
2023-02-16T22:54:55.193Z,-5.10
2023-02-16T22:57:28.463Z,-5.01
2023-02-16T23:00:01.183Z,-4.94
2023-02-16T23:02:34.296Z,-4.89
2023-02-16T23:05:07.317Z,-4.84
2023-02-16T23:07:40.145Z,-4.81
2023-02-16T23:10:15.688Z,-4.77
2023-02-16T23:12:48.593Z,-4.74
2023-02-16T23:15:21.818Z,-4.73
2023-02-16T23:17:55.159Z,-4.70
2023-02-16T23:20:28.896Z,-4.68
2023-02-16T23:23:01.573Z,-4.63
2023-02-16T23:25:34.418Z,-4.61
2023-02-16T23:28:07.682Z,-4.62
2023-02-16T23:30:45.104Z,-4.61
2023-02-16T23:33:18.857Z,-4.60
2023-02-16T23:35:51.631Z,-4.57
2023-02-16T23:38:25.360Z,-4.54
2023-02-16T23:41:03.192Z,-4.52
2023-02-16T23:43:36.951Z,-4.53
2023-02-16T23:46:09.973Z,-4.54
2023-02-16T23:48:44.032Z,-4.56
2023-02-16T23:51:17.231Z,-4.59
2023-02-16T23:53:50.187Z,-4.63
2023-02-16T23:56:25.385Z,-4.63
2023-02-16T23:59:00.349Z,-4.67
